»·PEaware :: F-WWCF YSCB-KSBD

F-WWCF :: YSCB-KSBD

FLIGHT INFORMATION

Flight Status: Arrived
Operator: Privately registered:
France
More flights under this callsign
Pilot: Alan Johnston (5709)
Aircraft: Unknown
(A359)
More flights by this aircraft type
Origin: YSCB Canberra
Australia
Destination: KSBD San Bernardino Intl
United States
More flights between these airports :: More routes between these airports
Route: +AKMIR1 AKMIR NOBAR A579 PUPEX A579 NN B577 HOI GOBIN B581 WACOS 02N60 WOSLU B581 CAMOS 18N42 21N38 24N34 27N29 FOOTS R578 FICKY CIVET
File this flight plan on PilotEdge
Remarks:
Altitude:
(Current/Filed)
41,000ft
Speed:
(Current/Filed)
480kts
Departed: 10-Jun-17 02:17 PM
Arrived: 10-Jun-17 03:05 PM
Distance/Time
Traveled:
6688nm/0:48
Distance/Time
To Go:
Arrived

Flight Plot

Page will automatically refresh every two minutes.

Flight plan parsing failed; only flown route is shown


Map Options




Map Legend


Flown Route
Filed Route
Departure Airport
Arrival Airport
Navaid (VOR, NDB)
Fix

Horizontal Profiles

Position Reports

Time Latitude Longitude Heading Altitude Ground
Speed
10-Jun-17 14:18 31.390346 -122.262166 76 40972ft 491kts
10-Jun-17 14:19 31.420383 -122.106617 76 40982ft 491kts
10-Jun-17 14:20 31.450518 -121.950907 76 40982ft 491kts
10-Jun-17 14:21 31.480382 -121.795684 76 40982ft 491kts
10-Jun-17 14:22 31.510139 -121.639826 75 40974ft 491kts
10-Jun-17 14:23 31.539770 -121.484096 75 40972ft 491kts
10-Jun-17 14:24 31.591041 -121.338667 51 40945ft 485kts
10-Jun-17 14:25 31.672646 -121.213301 50 40971ft 484kts
10-Jun-17 14:26 31.753819 -121.088086 50 40973ft 482kts
10-Jun-17 14:27 31.834674 -120.962989 50 40970ft 479kts
10-Jun-17 14:28 31.914682 -120.838820 50 40971ft 479kts
10-Jun-17 14:29 31.994800 -120.714057 50 40969ft 478kts
10-Jun-17 14:30 32.074681 -120.589262 50 40971ft 478kts
10-Jun-17 14:31 32.154474 -120.464783 50 40968ft 478kts
10-Jun-17 14:32 32.232275 -120.342790 51 40960ft 479kts
10-Jun-17 14:33 32.311749 -120.216899 51 40971ft 479kts
10-Jun-17 14:34 32.391156 -120.091110 51 40970ft 479kts
10-Jun-17 14:35 32.470486 -119.965105 51 40972ft 479kts
10-Jun-17 14:36 32.549727 -119.838837 51 40971ft 478kts
10-Jun-17 14:37 32.628600 -119.712722 51 40971ft 478kts
10-Jun-17 14:38 32.707728 -119.585792 51 40970ft 478kts
10-Jun-17 14:39 32.786614 -119.458808 51 39877ft 483kts
10-Jun-17 14:40 32.865441 -119.331445 52 37140ft 480kts
10-Jun-17 14:41 32.943980 -119.203626 51 34430ft 482kts
10-Jun-17 14:42 33.021572 -119.077357 51 31745ft 469kts
10-Jun-17 14:43 33.097545 -118.953558 52 29072ft 463kts
10-Jun-17 14:44 33.172106 -118.832251 52 26345ft 449kts
10-Jun-17 14:45 33.244058 -118.714173 53 23979ft 431kts
10-Jun-17 14:46 33.308880 -118.607405 53 23982ft 433kts
10-Jun-17 14:47 33.379370 -118.490931 52 23192ft 435kts
10-Jun-17 14:48 33.448997 -118.375480 52 20517ft 423kts
10-Jun-17 14:49 33.514859 -118.265601 53 17815ft 404kts
10-Jun-17 14:50 33.577488 -118.161086 53 16979ft 392kts
10-Jun-17 14:51 33.640602 -118.055562 53 16971ft 392kts
10-Jun-17 14:52 33.702248 -117.952144 52 15464ft 370kts
10-Jun-17 14:53 33.759010 -117.856726 52 13687ft 340kts
10-Jun-17 14:54 33.809381 -117.771867 52 11989ft 319kts
10-Jun-17 14:55 33.854324 -117.696013 52 10381ft 303kts
10-Jun-17 14:56 33.901877 -117.615577 52 8596ft 291kts
10-Jun-17 14:57 33.948063 -117.537269 53 6801ft 283kts
10-Jun-17 14:58 33.992616 -117.461562 54 5018ft 276kts
10-Jun-17 14:59 34.035373 -117.387149 58 4005ft 265kts
10-Jun-17 15:00 34.055897 -117.304195 81 3995ft 249kts
10-Jun-17 15:01 34.064699 -117.224233 89 4008ft 229kts
10-Jun-17 15:02 34.063294 -117.150182 95 3374ft 206kts
10-Jun-17 15:03 34.082572 -117.114021 331 3033ft 160kts
10-Jun-17 15:04 34.103056 -117.156929 311 2148ft 153kts
10-Jun-17 15:05 34.106194 -117.198140 248 1651ft 133kts
10-Jun-17 15:06 34.094010 -117.239280 250 1116ft 104kts
10-Jun-17 15:07 34.091606 -117.250734 342 1092ft 17kts
10-Jun-17 15:08 34.091952 -117.250868 342 1091ft 0kts
10-Jun-17 15:09 34.092311 -117.250926 14 1091ft 4kts
10-Jun-17 15:10 34.093899 -117.246209 70 1101ft 21kts
10-Jun-17 15:11 34.098647 -117.244073 6 1105ft 19kts
10-Jun-17 15:12 34.101230 -117.244499 343 1107ft 13kts
10-Jun-17 15:13 34.101459 -117.245465 271 1105ft 0kts
10-Jun-17 15:14 34.101459 -117.245465 271 1105ft 0kts
10-Jun-17 15:15 34.101459 -117.245465 271 1105ft 0kts
10-Jun-17 15:16 34.101459 -117.245465 271 1105ft 0kts
10-Jun-17 15:17 34.101459 -117.245465 271 1105ft 0kts

Navigation Log

Ident Type
Flight plan parsing failed, navigation log unavailable